createdAt,value
2023-03-28T00:02:29.025Z,8.07
2023-03-28T00:08:32.749Z,8.15
2023-03-28T00:14:38.628Z,9.10
2023-03-28T00:20:43.608Z,9.88
2023-03-28T00:26:54.413Z,8.43
2023-03-28T00:32:59.882Z,8.73
2023-03-28T00:39:06.515Z,8.65
2023-03-28T00:45:11.235Z,11.25
2023-03-28T00:51:16.287Z,10.68
2023-03-28T00:57:19.927Z,10.20
2023-03-28T01:03:27.684Z,11.07
2023-03-28T01:09:32.894Z,10.68
2023-03-28T01:15:36.444Z,8.00
2023-03-28T01:21:54.972Z,9.98
2023-03-28T01:28:02.483Z,12.48
2023-03-28T01:34:21.496Z,7.03
2023-03-28T01:40:32.806Z,8.55
2023-03-28T01:46:39.156Z,10.00
2023-03-28T01:52:47.787Z,7.85
2023-03-28T01:58:56.918Z,8.20
2023-03-28T02:05:00.862Z,9.50
2023-03-28T02:11:04.973Z,8.65
2023-03-28T02:17:16.067Z,11.45
2023-03-28T02:23:21.207Z,8.00
2023-03-28T02:29:24.588Z,10.60
2023-03-28T02:35:34.328Z,11.35
2023-03-28T02:41:42.588Z,10.45
2023-03-28T02:47:50.753Z,10.00
2023-03-28T02:53:58.563Z,10.32
2023-03-28T03:00:12.160Z,10.70
2023-03-28T03:06:18.012Z,13.70
2023-03-28T03:12:24.006Z,24.33
2023-03-28T03:18:27.574Z,17.42
2023-03-28T03:24:32.293Z,46.47
2023-03-28T03:30:37.493Z,20.17
2023-03-28T03:36:41.127Z,16.58
2023-03-28T03:42:44.577Z,17.00
2023-03-28T03:48:50.325Z,11.35
2023-03-28T03:54:54.736Z,13.15
2023-03-28T04:00:58.807Z,12.43
2023-03-28T04:07:03.641Z,11.52
2023-03-28T04:13:07.027Z,10.30
2023-03-28T04:19:13.882Z,11.30
2023-03-28T04:25:21.809Z,13.68
2023-03-28T04:31:29.872Z,9.55
2023-03-28T04:37:33.478Z,11.25
2023-03-28T04:43:38.240Z,10.05
2023-03-28T04:49:41.902Z,13.00
2023-03-28T04:55:49.001Z,11.30
2023-03-28T05:01:53.931Z,12.20
2023-03-28T05:07:57.396Z,12.32
2023-03-28T05:14:00.971Z,11.18
2023-03-28T05:20:11.071Z,7.70
2023-03-28T05:26:14.511Z,19.77
2023-03-28T05:32:18.128Z,28.52
2023-03-28T05:38:23.417Z,35.22
2023-03-28T05:44:26.869Z,120.13
2023-03-28T05:50:30.273Z,231.25
2023-03-28T05:56:36.476Z,67.00
2023-03-28T06:02:40.300Z,13.35
2023-03-28T06:08:44.019Z,9.73
2023-03-28T06:14:48.791Z,10.25
2023-03-28T06:20:52.297Z,9.55
2023-03-28T06:26:55.884Z,8.75
2023-03-28T06:33:00.741Z,9.48
2023-03-28T06:39:04.231Z,6.97
2023-03-28T06:45:08.204Z,9.50
2023-03-28T06:51:13.420Z,7.45
2023-03-28T06:57:17.173Z,8.95
2023-03-28T07:03:20.750Z,11.07
2023-03-28T07:09:25.840Z,7.82
2023-03-28T07:15:29.337Z,7.53
2023-03-28T07:21:32.736Z,10.32
2023-03-28T07:27:37.708Z,7.82
2023-03-28T07:33:41.746Z,8.95
2023-03-28T07:39:45.259Z,10.00
2023-03-28T07:45:50.226Z,9.43
2023-03-28T07:51:53.743Z,9.15
2023-03-28T07:57:57.466Z,12.27
2023-03-28T08:04:02.397Z,10.40
2023-03-28T08:10:06.546Z,10.23
2023-03-28T08:16:10.677Z,13.15
2023-03-28T08:22:16.693Z,8.13
2023-03-28T08:28:20.147Z,13.20
2023-03-28T08:34:23.578Z,12.73
2023-03-28T08:40:29.544Z,10.13
2023-03-28T08:46:33.948Z,6.93
2023-03-28T08:52:37.797Z,7.05
2023-03-28T08:58:50.216Z,7.23
2023-03-28T09:05:02.067Z,8.93
2023-03-28T09:11:18.558Z,6.90
2023-03-28T09:17:25.894Z,6.43
2023-03-28T09:23:41.166Z,6.50
2023-03-28T09:29:46.378Z,6.78
2023-03-28T09:35:52.364Z,5.82
2023-03-28T09:41:59.740Z,5.05
2023-03-28T09:48:03.715Z,6.07
2023-03-28T09:54:09.677Z,6.22
2023-03-28T10:00:22.299Z,10.05
2023-03-28T10:06:27.674Z,6.45
2023-03-28T10:12:35.745Z,3.67
2023-03-28T10:18:40.044Z,4.18
2023-03-28T10:24:44.014Z,4.93
2023-03-28T10:30:54.030Z,2.97
2023-03-28T10:36:57.502Z,6.20
2023-03-28T10:43:01.475Z,5.57
2023-03-28T10:49:07.600Z,7.60
2023-03-28T10:55:15.740Z,5.50
2023-03-28T11:01:21.058Z,3.65
2023-03-28T11:07:31.014Z,5.85
2023-03-28T11:13:38.877Z,4.60
2023-03-28T11:19:48.237Z,4.88
2023-03-28T11:25:57.782Z,4.07
2023-03-28T11:32:05.281Z,4.88
2023-03-28T11:38:13.940Z,5.25
2023-03-28T11:44:21.914Z,4.63
2023-03-28T11:50:28.428Z,5.95
2023-03-28T11:56:40.152Z,4.87
2023-03-28T12:02:49.217Z,8.10
2023-03-28T12:08:58.286Z,3.95
2023-03-28T12:15:05.257Z,6.97
2023-03-28T12:21:14.049Z,7.50
2023-03-28T12:27:22.647Z,6.05
2023-03-28T12:33:31.160Z,5.80
2023-03-28T12:39:40.673Z,5.20
2023-03-28T12:45:46.068Z,4.22
2023-03-28T12:51:51.101Z,7.03
2023-03-28T12:57:57.173Z,5.22
2023-03-28T13:04:04.482Z,8.25
2023-03-28T13:10:16.810Z,6.97
2023-03-28T13:16:26.743Z,4.00
2023-03-28T13:22:32.250Z,5.88
2023-03-28T13:28:44.555Z,6.00
2023-03-28T13:34:50.372Z,8.68
2023-03-28T13:40:56.027Z,6.05
2023-03-28T13:46:59.630Z,6.78
2023-03-28T13:53:04.856Z,6.05
2023-03-28T13:59:09.347Z,5.68
2023-03-28T14:05:17.015Z,4.93
2023-03-28T14:11:23.774Z,5.70
2023-03-28T14:17:28.764Z,3.88
2023-03-28T14:23:34.316Z,5.88
2023-03-28T14:29:52.670Z,5.35
2023-03-28T14:35:59.660Z,6.40
2023-03-28T14:42:03.929Z,7.38
2023-03-28T14:48:10.464Z,6.72
2023-03-28T14:54:15.589Z,4.20
2023-03-28T15:00:22.243Z,5.40
2023-03-28T15:06:29.305Z,7.63
2023-03-28T15:12:33.208Z,4.82
2023-03-28T15:18:43.776Z,5.20
2023-03-28T15:24:50.638Z,4.72
2023-03-28T15:30:55.206Z,6.55
2023-03-28T15:37:01.091Z,2.90
2023-03-28T15:43:06.919Z,3.05
2023-03-28T15:49:15.047Z,4.65
2023-03-28T15:55:22.516Z,3.08
2023-03-28T16:01:28.406Z,6.20
2023-03-28T16:07:36.261Z,3.40
2023-03-28T16:13:39.726Z,6.82
2023-03-28T16:19:46.643Z,5.03
2023-03-28T16:25:52.430Z,9.00
2023-03-28T16:31:55.936Z,3.97
2023-03-28T16:38:01.222Z,3.10
2023-03-28T16:44:04.704Z,2.90
2023-03-28T16:50:09.373Z,2.85
2023-03-28T16:56:15.526Z,2.58
2023-03-28T17:02:18.983Z,2.72
2023-03-28T17:08:24.053Z,1.88
2023-03-28T17:14:28.831Z,3.38
2023-03-28T17:20:32.197Z,3.65
2023-03-28T17:26:36.007Z,3.88
2023-03-28T17:32:41.272Z,4.15
2023-03-28T17:38:44.798Z,4.72
2023-03-28T17:44:48.548Z,6.13
2023-03-28T17:50:54.759Z,4.90
2023-03-28T17:56:59.232Z,4.47
2023-03-28T18:03:02.974Z,6.28
2023-03-28T18:09:08.521Z,6.13
2023-03-28T18:15:12.667Z,6.82
2023-03-28T18:21:16.536Z,6.22
2023-03-28T18:27:21.518Z,7.00
2023-03-28T18:33:24.998Z,15.65
2023-03-28T18:39:29.278Z,68.93
2023-03-28T18:45:36.282Z,15.45
2023-03-28T18:51:39.848Z,7.18
2023-03-28T18:57:43.309Z,11.98
2023-03-28T19:03:49.958Z,9.50
2023-03-28T19:09:54.789Z,8.30
2023-03-28T19:16:02.064Z,5.88
2023-03-28T19:22:07.416Z,6.05
2023-03-28T19:28:11.112Z,9.70
2023-03-28T19:34:17.220Z,5.80
2023-03-28T19:40:22.112Z,7.05
2023-03-28T19:46:33.267Z,6.40
2023-03-28T19:52:42.571Z,5.78
2023-03-28T19:58:47.788Z,7.35
2023-03-28T20:04:51.413Z,5.22
2023-03-28T20:10:55.017Z,6.68
2023-03-28T20:16:59.804Z,6.47
2023-03-28T20:23:04.179Z,5.00
2023-03-28T20:29:10.402Z,7.47
2023-03-28T20:35:15.847Z,6.50
2023-03-28T20:41:20.690Z,5.75
2023-03-28T20:47:29.056Z,5.13
2023-03-28T20:53:34.878Z,5.75
2023-03-28T20:59:40.724Z,7.22
2023-03-28T21:05:46.157Z,4.88
2023-03-28T21:11:51.072Z,9.63
2023-03-28T21:17:54.506Z,5.00
2023-03-28T21:23:58.197Z,8.10
2023-03-28T21:30:06.993Z,8.07
2023-03-28T21:36:11.824Z,6.97
2023-03-28T21:42:15.542Z,6.40
2023-03-28T21:48:21.152Z,6.85
2023-03-28T21:54:25.537Z,5.95
2023-03-28T22:00:29.465Z,7.45
2023-03-28T22:06:34.320Z,5.60
2023-03-28T22:12:37.727Z,6.13
2023-03-28T22:18:41.521Z,4.75
2023-03-28T22:24:46.457Z,9.40
2023-03-28T22:30:49.948Z,4.90
2023-03-28T22:36:54.924Z,5.75
2023-03-28T22:42:59.818Z,7.45
2023-03-28T22:49:04.646Z,5.57
2023-03-28T22:55:09.127Z,5.82
2023-03-28T23:01:14.281Z,5.68
2023-03-28T23:07:18.109Z,5.78
2023-03-28T23:13:21.852Z,5.78
2023-03-28T23:19:26.827Z,4.35
2023-03-28T23:25:30.340Z,5.25
2023-03-28T23:31:33.907Z,5.53
2023-03-28T23:37:39.315Z,7.60
2023-03-28T23:43:42.952Z,5.53
2023-03-28T23:49:46.512Z,4.88
2023-03-28T23:55:51.826Z,4.55
